Houston's Hourly Summary for Saturday, March 18, 2017
Hour Temp
(f)
RH
(%)
Solar Rad.
(MJ/m2)
Rainfall
(in)
Wind
(mph)
3/18/2017 12:00 AM 65 95 0 0 2.24
3/18/2017 1:00 AM 64 99 0 0 0.21
3/18/2017 2:00 AM 63 99 0 0 0.03
3/18/2017 3:00 AM 62 99 0 0 0
3/18/2017 4:00 AM 61 99 0 0 0
3/18/2017 5:00 AM 60 99 0 0 0
3/18/2017 6:00 AM 61 99 0 0 0
3/18/2017 7:00 AM 60 99 0 0 0
3/18/2017 8:00 AM 61 99 0.03 0 0.02
3/18/2017 9:00 AM 64 99 0.39 0 1.07
3/18/2017 10:00 AM 69 93 1.12 0 3.05
3/18/2017 11:00 AM 74 75 1.65 0 3.92
3/18/2017 12:00 PM 76 64 2.34 0 3.52
3/18/2017 1:00 PM 78 55 2.72 0 1.55
3/18/2017 2:00 PM 80 50 2.88 0 1.63
3/18/2017 3:00 PM 82 45 2.72 0 2.13
3/18/2017 4:00 PM 79 60 1.75 0 5.92
3/18/2017 5:00 PM 79 60 1.74 0 6.7
3/18/2017 6:00 PM 78 64 0.82 0 6.52
3/18/2017 7:00 PM 76 66 0.45 0 5.58
3/18/2017 8:00 PM 74 70 0.04 0 4.14
3/18/2017 9:00 PM 73 76 0 0 3.92
3/18/2017 10:00 PM 71 82 0 0 2.91
3/18/2017 11:00 PM 69 95 0 0 1.89
Data Summary 69 80 18.65 0.00 2.37